Time;durP1;ratioP1;P1;durP2;ratioP2;P2;SDS_P1;SDS_P2;PMS_P1;PMS_P2;Temp;Humidity;BMP_temperature;BMP_pressure;BME280_temperature;BME280_humidity;BME280_pressure;Samples;Min_cycle;Max_cycle;Signal;HPM_P1;HPM_P2
2022/05/17 00:00:47;;;;;;;8.10;2.90;;;17.10;99.90;;;;;;5062124;28;20193;-71
2022/05/17 00:03:14;;;;;;;5.93;2.90;;;17.10;99.90;;;;;;5033990;28;20316;-71
2022/05/17 00:05:45;;;;;;;5.93;2.80;;;17.10;99.90;;;;;;5048116;28;20213;-71
2022/05/17 00:08:14;;;;;;;5.07;2.97;;;17.10;99.90;;;;;;5061035;28;20265;-71
2022/05/17 00:10:41;;;;;;;5.80;2.90;;;17.10;99.90;;;;;;5071941;28;20275;-71
2022/05/17 00:13:09;;;;;;;6.63;2.73;;;17.10;99.90;;;;;;5067065;28;20694;-71
2022/05/17 00:15:48;;;;;;;5.40;2.70;;;17.10;99.90;;;;;;5072761;28;20191;-71
2022/05/17 00:18:18;;;;;;;6.50;2.93;;;17.00;99.90;;;;;;5041702;28;20525;-72
2022/05/17 00:20:45;;;;;;;7.93;3.13;;;17.00;99.90;;;;;;5051748;28;20237;-71
2022/05/17 00:23:15;;;;;;;7.80;3.10;;;17.00;99.90;;;;;;5039000;28;20241;-71
2022/05/17 00:25:48;;;;;;;6.20;3.20;;;17.00;99.90;;;;;;5057762;28;20212;-71
2022/05/17 00:28:21;;;;;;;9.77;2.70;;;16.90;99.90;;;;;;5067967;28;20182;-71
2022/05/17 00:30:49;;;;;;;5.10;2.77;;;16.90;99.90;;;;;;5055218;28;20220;-71
2022/05/17 00:33:16;;;;;;;6.60;2.80;;;16.90;99.90;;;;;;5029831;28;20183;-71
2022/05/17 00:35:45;;;;;;;10.53;2.90;;;16.90;99.90;;;;;;5065450;28;20576;-71
2022/05/17 00:38:13;;;;;;;5.10;2.80;;;16.80;99.90;;;;;;5049415;28;20668;-71
2022/05/17 00:40:40;;;;;;;5.07;2.77;;;16.90;99.90;;;;;;5074156;28;20215;-71
2022/05/17 00:46:32;;;;;;;6.60;3.00;;;16.90;99.90;;;;;;5063079;28;20199;-71
2022/05/17 00:48:59;;;;;;;7.07;2.70;;;16.90;99.90;;;;;;5048725;28;20186;-72
2022/05/17 00:51:33;;;;;;;8.60;2.33;;;17.00;99.90;;;;;;5047771;28;20193;-71
2022/05/17 00:54:10;;;;;;;6.43;2.50;;;17.00;99.90;;;;;;5069163;28;20189;-71
2022/05/17 00:57:00;;;;;;;5.53;2.87;;;17.00;99.90;;;;;;5062210;28;20195;-72
2022/05/17 00:59:28;;;;;;;6.67;2.83;;;17.00;99.90;;;;;;5062282;28;20202;-71
2022/05/17 01:01:58;;;;;;;5.17;2.73;;;17.00;99.90;;;;;;5046731;28;20202;-71
2022/05/17 01:04:26;;;;;;;6.57;2.50;;;17.10;99.90;;;;;;5062163;28;20201;-72
2022/05/17 01:07:03;;;;;;;6.33;2.53;;;17.10;99.90;;;;;;5054268;28;20207;-72
2022/05/17 01:09:30;;;;;;;6.57;2.97;;;17.20;99.90;;;;;;5043575;28;20655;-71
2022/05/17 01:11:56;;;;;;;5.87;2.90;;;17.10;99.90;;;;;;5067917;28;20190;-71
2022/05/17 01:17:08;;;;;;;8.13;3.20;;;17.10;99.90;;;;;;5054467;28;20199;-71
2022/05/17 01:19:40;;;;;;;8.10;3.23;;;17.00;99.90;;;;;;5075252;28;20239;-71
2022/05/17 01:22:08;;;;;;;7.40;2.90;;;17.00;99.90;;;;;;5056647;28;21117;-71
2022/05/17 01:24:34;;;;;;;9.00;3.30;;;16.90;99.90;;;;;;5063274;28;20191;-71
2022/05/17 01:27:11;;;;;;;4.97;2.57;;;16.90;99.90;;;;;;5059313;28;20234;-71
2022/05/17 01:29:41;;;;;;;4.67;2.80;;;16.80;99.90;;;;;;5054481;28;20599;-71
2022/05/17 01:32:10;;;;;;;5.40;3.03;;;16.90;99.90;;;;;;5029157;28;20213;-71
2022/05/17 01:34:38;;;;;;;7.27;3.20;;;16.90;99.90;;;;;;5058842;28;20267;-71
2022/05/17 01:37:08;;;;;;;4.53;2.73;;;16.90;99.90;;;;;;5038926;28;20193;-72
2022/05/17 01:39:35;;;;;;;9.50;2.87;;;16.80;99.90;;;;;;5033189;28;20247;-71
2022/05/17 01:42:03;;;;;;;7.03;3.00;;;16.80;99.90;;;;;;5061121;28;20190;-71
2022/05/17 01:44:33;;;;;;;8.93;2.70;;;16.80;99.90;;;;;;5060354;28;20277;-71
2022/05/17 01:47:02;;;;;;;3.87;2.47;;;16.80;99.90;;;;;;5066982;28;20784;-71
2022/05/17 01:49:29;;;;;;;6.47;3.30;;;16.90;99.90;;;;;;5046271;28;20191;-71
2022/05/17 01:51:56;;;;;;;9.10;3.30;;;16.90;99.90;;;;;;5062723;28;20278;-71
2022/05/17 01:54:25;;;;;;;4.97;2.87;;;16.90;99.90;;;;;;5055618;28;20190;-71
2022/05/17 01:56:51;;;;;;;6.50;2.80;;;16.90;99.90;;;;;;5075208;28;20195;-71
2022/05/17 01:59:21;;;;;;;6.13;2.83;;;17.00;99.90;;;;;;5036804;28;20191;-71
2022/05/17 02:01:47;;;;;;;7.73;2.63;;;17.00;99.90;;;;;;5063659;28;20586;-71
2022/05/17 02:04:14;;;;;;;10.10;2.87;;;17.10;99.90;;;;;;5059794;28;20648;-71
2022/05/17 02:06:42;;;;;;;6.87;2.70;;;17.10;99.90;;;;;;5063596;28;20556;-71
2022/05/17 02:09:09;;;;;;;9.13;3.10;;;17.10;99.90;;;;;;5063011;28;20232;-71
2022/05/17 02:11:36;;;;;;;8.23;3.00;;;17.10;99.90;;;;;;5077180;28;20631;-71
2022/05/17 02:14:02;;;;;;;5.97;2.60;;;17.10;99.90;;;;;;5059002;28;20191;-71
2022/05/17 02:16:29;;;;;;;9.20;2.90;;;17.10;99.90;;;;;;5064404;28;20197;-72
2022/05/17 02:18:56;;;;;;;7.13;3.27;;;17.10;99.90;;;;;;5049184;28;20198;-72
2022/05/17 02:21:25;;;;;;;6.23;3.00;;;17.00;99.90;;;;;;5065863;28;20273;-72
2022/05/17 02:23:52;;;;;;;5.53;2.90;;;17.00;99.90;;;;;;5059767;28;20179;-72
2022/05/17 02:26:19;;;;;;;7.53;2.93;;;17.00;99.90;;;;;;5060967;28;21950;-71
2022/05/17 02:28:46;;;;;;;4.90;2.60;;;17.00;99.90;;;;;;5062685;28;20192;-71
2022/05/17 02:31:15;;;;;;;5.03;2.63;;;17.10;99.90;;;;;;5060839;28;20564;-71
2022/05/17 02:33:45;;;;;;;4.80;2.60;;;17.10;99.90;;;;;;5059235;28;22190;-71
2022/05/17 02:36:11;;;;;;;9.10;2.80;;;17.10;99.90;;;;;;5049023;28;20265;-71
2022/05/17 02:38:37;;;;;;;5.50;2.53;;;17.10;99.90;;;;;;5051991;28;20607;-71
2022/05/17 02:41:04;;;;;;;3.77;2.70;;;17.10;99.90;;;;;;5045537;28;20191;-71
2022/05/17 02:43:30;;;;;;;7.00;2.90;;;17.10;99.90;;;;;;5048679;28;20248;-71
2022/05/17 02:45:56;;;;;;;5.23;2.60;;;17.10;99.90;;;;;;5060947;28;20211;-71
2022/05/17 02:48:23;;;;;;;7.30;2.73;;;17.00;99.90;;;;;;5033728;28;20242;-71
2022/05/17 02:50:50;;;;;;;3.37;2.43;;;17.00;99.90;;;;;;5069619;28;20353;-71
2022/05/17 02:53:23;;;;;;;5.77;2.60;;;16.90;99.90;;;;;;5060515;28;20182;-71
2022/05/17 02:55:50;;;;;;;8.83;2.80;;;16.90;99.90;;;;;;5061612;28;20213;-71
2022/05/17 02:58:16;;;;;;;6.87;2.80;;;16.90;99.90;;;;;;5045098;28;20198;-71
2022/05/17 03:00:45;;;;;;;5.67;2.43;;;16.90;99.90;;;;;;5046011;28;20236;-71
2022/05/17 03:03:17;;;;;;;4.70;2.80;;;16.80;99.90;;;;;;5065040;28;20191;-71
2022/05/17 03:05:46;;;;;;;5.37;3.00;;;16.80;99.90;;;;;;5063327;28;20207;-71
2022/05/17 03:08:13;;;;;;;4.67;2.60;;;16.90;99.90;;;;;;5073703;28;20186;-72
2022/05/17 03:10:39;;;;;;;7.33;2.60;;;16.90;99.90;;;;;;5041658;28;20193;-71
2022/05/17 03:13:11;;;;;;;7.57;2.70;;;16.90;99.90;;;;;;5058628;28;20228;-71
2022/05/17 03:15:38;;;;;;;6.50;2.70;;;17.00;99.90;;;;;;5060247;28;20203;-71
2022/05/17 03:18:04;;;;;;;4.17;2.83;;;17.00;99.90;;;;;;5058925;28;20186;-71
2022/05/17 03:20:32;;;;;;;6.03;2.77;;;17.10;99.90;;;;;;5043593;28;20299;-71
2022/05/17 03:22:59;;;;;;;7.73;2.63;;;17.10;99.90;;;;;;5047480;28;20218;-71
2022/05/17 03:25:28;;;;;;;7.57;2.50;;;17.10;99.90;;;;;;5056235;28;20214;-71
2022/05/17 03:27:55;;;;;;;7.53;3.10;;;17.10;99.90;;;;;;5029185;28;20187;-71
2022/05/17 03:30:22;;;;;;;3.97;2.63;;;17.10;99.90;;;;;;5067257;28;20615;-71
2022/05/17 03:32:49;;;;;;;5.97;2.50;;;17.20;99.90;;;;;;5040440;28;20290;-71
2022/05/17 03:35:15;;;;;;;4.63;2.83;;;17.20;99.90;;;;;;5070824;28;20195;-71
2022/05/17 03:37:44;;;;;;;6.63;2.90;;;17.30;99.90;;;;;;5057300;28;20195;-71
2022/05/17 03:40:15;;;;;;;8.77;2.93;;;17.40;99.90;;;;;;5058777;28;20268;-71
2022/05/17 03:42:41;;;;;;;3.37;2.70;;;17.40;99.90;;;;;;5039949;28;20215;-72
2022/05/17 03:45:09;;;;;;;6.73;3.07;;;17.40;99.90;;;;;;5061025;28;20275;-71
2022/05/17 03:47:37;;;;;;;7.23;2.47;;;17.50;99.90;;;;;;5060440;28;20183;-71
2022/05/17 03:50:05;;;;;;;6.90;2.80;;;17.50;99.90;;;;;;5054923;28;20234;-71
2022/05/17 03:52:32;;;;;;;5.93;2.70;;;17.60;99.90;;;;;;5051971;28;20240;-71
2022/05/17 03:55:03;;;;;;;7.37;2.50;;;17.80;99.90;;;;;;5064563;28;20185;-71
2022/05/17 03:57:30;;;;;;;8.20;2.90;;;17.80;99.90;;;;;;5036810;28;20213;-72
2022/05/17 03:59:57;;;;;;;4.73;2.43;;;17.90;99.90;;;;;;5058672;28;20888;-71
2022/05/17 04:02:28;;;;;;;6.53;2.50;;;18.00;99.90;;;;;;5068561;28;20234;-72
2022/05/17 04:04:56;;;;;;;7.03;2.40;;;18.10;99.90;;;;;;5064294;28;20191;-71
2022/05/17 04:07:23;;;;;;;9.80;2.60;;;18.20;99.90;;;;;;5064084;28;20208;-72
2022/05/17 04:09:49;;;;;;;5.00;2.40;;;18.30;99.90;;;;;;5048516;28;20190;-72
2022/05/17 04:12:19;;;;;;;4.87;2.67;;;18.30;99.90;;;;;;5063480;28;20191;-72
2022/05/17 04:14:46;;;;;;;4.03;2.30;;;18.30;99.90;;;;;;5062269;28;20200;-71
2022/05/17 04:17:15;;;;;;;5.77;2.30;;;18.40;99.90;;;;;;5075489;28;20186;-72
2022/05/17 04:19:42;;;;;;;6.87;2.60;;;18.50;99.90;;;;;;5069668;28;20606;-71
2022/05/17 04:22:11;;;;;;;7.40;2.60;;;18.50;99.90;;;;;;5067371;28;20232;-71
2022/05/17 04:24:41;;;;;;;7.27;2.60;;;18.70;99.90;;;;;;5047793;28;20614;-72
2022/05/17 04:27:14;;;;;;;4.20;2.50;;;18.70;99.90;;;;;;5071663;28;20254;-71
2022/05/17 04:29:41;;;;;;;6.00;2.90;;;18.80;99.90;;;;;;5071293;28;20187;-71
2022/05/17 04:32:13;;;;;;;4.50;2.60;;;18.90;99.90;;;;;;5052404;28;20726;-72
2022/05/17 04:34:39;;;;;;;8.37;2.63;;;19.00;99.90;;;;;;5066760;28;21029;-71
2022/05/17 04:37:06;;;;;;;8.17;2.73;;;19.00;99.90;;;;;;5066829;28;20639;-71
2022/05/17 04:39:37;;;;;;;4.83;2.70;;;19.10;99.90;;;;;;5050358;28;20910;-71
2022/05/17 04:42:06;;;;;;;7.07;2.90;;;19.20;99.90;;;;;;5064039;28;20179;-72
2022/05/17 04:44:32;;;;;;;6.23;2.70;;;19.20;99.90;;;;;;5064433;28;20204;-72
2022/05/17 04:46:58;;;;;;;3.80;2.57;;;19.20;99.90;;;;;;5068225;28;20229;-71
2022/05/17 04:49:25;;;;;;;8.37;3.20;;;19.30;99.90;;;;;;5068414;28;20194;-71
2022/05/17 04:51:52;;;;;;;4.90;3.40;;;19.30;99.90;;;;;;5062715;28;20196;-72
2022/05/17 04:54:19;;;;;;;6.30;2.90;;;19.30;99.90;;;;;;5062764;28;20206;-71
2022/05/17 04:56:47;;;;;;;3.33;2.93;;;19.30;99.90;;;;;;5035169;28;20199;-71
2022/05/17 04:59:21;;;;;;;6.30;3.00;;;19.30;99.90;;;;;;5054584;28;20198;-72
2022/05/17 05:01:47;;;;;;;4.57;3.80;;;19.30;99.90;;;;;;5048950;28;20187;-72
2022/05/17 05:04:14;;;;;;;4.37;3.20;;;19.40;99.90;;;;;;5073347;28;20803;-72
2022/05/17 05:06:44;;;;;;;4.33;3.17;;;19.40;99.90;;;;;;5066938;28;20206;-71
2022/05/17 05:09:11;;;;;;;5.70;3.30;;;19.50;99.90;;;;;;5065033;28;20194;-71
2022/05/17 05:11:38;;;;;;;6.23;3.57;;;19.50;99.90;;;;;;5041906;28;20255;-72
2022/05/17 05:14:05;;;;;;;10.37;3.73;;;19.70;99.90;;;;;;5052494;28;20191;-72
2022/05/17 05:16:32;;;;;;;5.53;2.87;;;19.70;99.90;;;;;;5050073;28;20210;-71
2022/05/17 05:18:59;;;;;;;4.77;3.13;;;19.70;99.90;;;;;;5057925;28;20200;-71
2022/05/17 05:21:26;;;;;;;7.67;3.20;;;19.70;99.90;;;;;;5034314;28;20232;-71
2022/05/17 05:23:56;;;;;;;6.07;3.00;;;19.80;99.90;;;;;;5047742;28;20589;-72
2022/05/17 05:26:28;;;;;;;6.80;3.20;;;19.80;99.90;;;;;;5042710;28;20218;-72
2022/05/17 05:28:58;;;;;;;6.23;3.50;;;20.00;99.90;;;;;;5060207;28;20226;-72
2022/05/17 05:31:26;;;;;;;5.27;3.40;;;20.00;99.90;;;;;;5064574;28;20226;-71
2022/05/17 05:33:52;;;;;;;5.93;3.70;;;20.00;99.90;;;;;;5043621;28;20182;-71
2022/05/17 05:36:35;;;;;;;4.93;3.70;;;20.00;99.90;;;;;;5061277;28;20205;-72
2022/05/17 05:39:04;;;;;;;6.70;3.93;;;19.90;99.90;;;;;;5057582;28;20190;-72
2022/05/17 05:41:30;;;;;;;6.40;4.47;;;19.90;99.90;;;;;;5060370;28;20188;-72
2022/05/17 05:43:56;;;;;;;7.03;4.40;;;19.90;99.90;;;;;;5055392;28;20223;-72
2022/05/17 05:46:23;;;;;;;8.37;3.67;;;20.00;99.90;;;;;;5065352;28;20210;-72
2022/05/17 05:48:49;;;;;;;7.50;3.83;;;20.20;99.90;;;;;;5064255;28;20635;-72
2022/05/17 05:51:15;;;;;;;7.47;3.67;;;20.30;99.90;;;;;;5066887;28;20187;-72
2022/05/17 05:53:45;;;;;;;6.27;3.30;;;20.30;99.90;;;;;;5047054;28;21005;-72
2022/05/17 05:56:12;;;;;;;6.57;3.77;;;20.30;99.90;;;;;;5068569;28;20183;-72
2022/05/17 05:58:42;;;;;;;8.47;3.57;;;20.30;99.90;;;;;;5047978;28;20194;-72
2022/05/17 06:01:12;;;;;;;6.63;3.37;;;20.40;99.90;;;;;;5063414;28;20183;-72
2022/05/17 06:03:39;;;;;;;8.33;3.03;;;20.60;99.90;;;;;;5057943;28;20278;-72
2022/05/17 06:06:10;;;;;;;6.40;3.37;;;20.70;99.90;;;;;;5070927;28;20317;-72
2022/05/17 06:08:40;;;;;;;6.47;3.13;;;20.80;99.90;;;;;;5060795;28;20678;-72
2022/05/17 06:11:14;;;;;;;8.13;3.13;;;20.90;99.90;;;;;;5038454;28;20250;-72
2022/05/17 06:13:44;;;;;;;5.13;2.87;;;20.90;99.90;;;;;;5066636;28;20266;-72
2022/05/17 06:16:13;;;;;;;6.20;3.10;;;20.90;99.90;;;;;;5066117;28;20214;-72
2022/05/17 06:18:41;;;;;;;7.53;3.07;;;21.00;99.90;;;;;;5054549;28;21164;-72
2022/05/17 06:21:08;;;;;;;6.40;2.80;;;21.00;99.90;;;;;;5046755;28;20201;-72
2022/05/17 06:23:35;;;;;;;6.13;3.30;;;21.00;99.90;;;;;;5060245;28;20325;-72
2022/05/17 06:26:03;;;;;;;7.43;3.10;;;21.10;99.90;;;;;;5063573;28;20289;-72
2022/05/17 06:28:29;;;;;;;9.90;3.13;;;21.20;99.90;;;;;;5057006;28;20183;-72
2022/05/17 06:30:56;;;;;;;10.30;3.30;;;21.20;99.90;;;;;;5036833;28;20183;-72
2022/05/17 06:33:26;;;;;;;6.40;3.30;;;21.30;99.90;;;;;;5069431;28;20194;-72
2022/05/17 06:35:55;;;;;;;6.23;3.00;;;21.40;99.90;;;;;;5061812;28;20847;-72
2022/05/17 06:38:22;;;;;;;6.33;3.30;;;21.40;99.90;;;;;;5062446;28;20631;-72
2022/05/17 06:40:51;;;;;;;12.57;3.57;;;21.40;99.90;;;;;;5061560;28;21000;-72
2022/05/17 06:43:18;;;;;;;5.87;2.87;;;21.40;99.90;;;;;;5069354;28;20195;-72
2022/05/17 06:45:44;;;;;;;8.80;3.30;;;21.40;99.90;;;;;;5039103;28;20339;-72
2022/05/17 06:48:16;;;;;;;11.27;3.50;;;21.50;99.90;;;;;;5045878;28;20214;-72
2022/05/17 06:50:43;;;;;;;8.23;3.27;;;21.50;99.90;;;;;;5054404;28;20690;-72
2022/05/17 06:53:10;;;;;;;6.37;3.57;;;21.60;99.90;;;;;;5053423;28;20862;-72
2022/05/17 06:55:38;;;;;;;5.77;3.20;;;21.80;99.90;;;;;;5046201;28;20336;-72
2022/05/17 06:58:05;;;;;;;5.37;3.77;;;21.90;99.90;;;;;;5060108;28;20214;-72
2022/05/17 07:00:34;;;;;;;7.88;3.33;;;21.90;99.90;;;;;;5080176;28;20191;-72
2022/05/17 07:03:06;;;;;;;5.13;3.30;;;22.00;99.90;;;;;;5057575;28;20183;-72
2022/05/17 07:05:33;;;;;;;6.90;3.60;;;22.00;99.90;;;;;;5067103;28;20607;-72
2022/05/17 07:08:07;;;;;;;5.87;3.70;;;22.10;99.90;;;;;;5060961;28;20183;-72
2022/05/17 07:13:21;;;;;;;8.05;3.45;;;22.20;99.90;;;;;;5057069;28;20218;-72
2022/05/17 07:15:51;;;;;;;9.32;3.58;;;22.30;99.90;;;;;;5076771;28;20175;-73
2022/05/17 07:18:29;;;;;;;6.57;3.73;;;22.40;99.90;;;;;;5064840;28;20190;-72
2022/05/17 07:20:58;;;;;;;7.65;3.95;;;22.40;99.90;;;;;;5058777;28;20191;-72
2022/05/17 07:23:26;;;;;;;7.35;3.78;;;22.60;99.90;;;;;;5068251;28;20285;-72
2022/05/17 07:25:55;;;;;;;12.98;4.35;;;22.80;99.90;;;;;;5056800;28;20213;-72
2022/05/17 07:28:25;;;;;;;6.95;3.80;;;22.80;99.90;;;;;;5024035;28;20199;-71
2022/05/17 07:30:55;;;;;;;8.65;4.00;;;22.80;99.90;;;;;;5052851;28;20218;-72
2022/05/17 07:33:24;;;;;;;10.15;3.72;;;22.90;99.90;;;;;;5069561;28;20193;-72
2022/05/17 07:35:51;;;;;;;11.65;3.95;;;23.00;99.90;;;;;;5042468;28;20377;-72
2022/05/17 07:38:21;;;;;;;9.02;3.88;;;23.00;99.90;;;;;;5059989;28;20521;-72
2022/05/17 07:40:51;;;;;;;10.82;4.40;;;23.00;99.90;;;;;;5040162;28;20210;-72
2022/05/17 07:43:19;;;;;;;6.22;4.28;;;22.90;99.90;;;;;;5060618;28;20187;-72
2022/05/17 07:45:49;;;;;;;7.20;3.67;;;23.10;99.90;;;;;;5039473;28;20210;-72
2022/05/17 07:48:24;;;;;;;12.75;4.22;;;23.20;99.90;;;;;;5045685;28;20188;-73
2022/05/17 07:50:50;;;;;;;11.25;3.85;;;23.30;99.90;;;;;;5065503;28;20236;-72
2022/05/17 07:53:23;;;;;;;8.57;3.78;;;23.30;99.90;;;;;;5042428;28;20525;-72
2022/05/17 07:55:50;;;;;;;10.93;3.80;;;23.40;99.90;;;;;;5037203;28;20206;-71
2022/05/17 07:58:17;;;;;;;6.72;3.92;;;23.40;99.90;;;;;;5043033;28;20201;-72
2022/05/17 08:00:44;;;;;;;7.57;4.30;;;23.30;99.90;;;;;;5058508;28;20191;-71
2022/05/17 08:03:16;;;;;;;7.55;3.92;;;23.40;99.90;;;;;;5027117;28;20312;-72
2022/05/17 08:05:44;;;;;;;8.55;3.83;;;23.50;99.90;;;;;;5033702;28;20207;-72
2022/05/17 08:08:11;;;;;;;8.80;4.15;;;23.60;99.90;;;;;;5074945;28;20225;-72
2022/05/17 08:10:41;;;;;;;8.20;4.13;;;23.60;99.90;;;;;;5064388;28;20183;-72
2022/05/17 08:13:08;;;;;;;7.90;3.90;;;23.60;99.90;;;;;;5056973;28;20183;-72
2022/05/17 08:15:35;;;;;;;9.32;4.30;;;23.60;99.90;;;;;;5061262;28;20294;-72
2022/05/17 08:18:02;;;;;;;10.25;4.38;;;23.80;99.90;;;;;;5051172;28;20662;-72
2022/05/17 08:20:30;;;;;;;9.65;4.50;;;23.80;99.90;;;;;;5074434;28;20246;-72
2022/05/17 08:22:57;;;;;;;9.40;4.30;;;23.90;99.90;;;;;;5062154;28;20193;-72
2022/05/17 08:28:10;;;;;;;8.65;4.50;;;24.10;99.90;;;;;;5064037;28;20179;-72
2022/05/17 08:30:39;;;;;;;7.78;4.30;;;24.20;99.90;;;;;;5065104;28;20214;-72
2022/05/17 08:33:16;;;;;;;7.95;4.13;;;24.30;99.90;;;;;;5042030;28;20183;-72
2022/05/17 08:35:55;;;;;;;9.38;4.13;;;24.30;99.90;;;;;;5061218;28;20198;-72
2022/05/17 08:38:29;;;;;;;7.70;4.80;;;24.50;99.90;;;;;;5066216;28;20547;-72
2022/05/17 08:41:13;;;;;;;6.38;4.50;;;24.60;99.90;;;;;;5065910;28;20263;-72
2022/05/17 08:44:13;;;;;;;8.35;4.22;;;24.70;99.90;;;;;;5055257;28;20938;-72
2022/05/17 08:47:11;;;;;;;7.93;4.57;;;24.80;99.90;;;;;;5045757;28;20211;-72
2022/05/17 08:50:00;;;;;;;7.10;4.53;;;24.90;99.90;;;;;;5066125;28;20333;-72
2022/05/17 08:52:36;;;;;;;9.85;4.38;;;24.90;99.90;;;;;;5063432;28;20220;-72
2022/05/17 08:55:24;;;;;;;10.35;4.47;;;24.90;99.90;;;;;;5063859;28;20194;-72
2022/05/17 08:58:40;;;;;;;11.35;4.90;;;25.10;99.90;;;;;;5062266;28;20628;-72
2022/05/17 09:01:28;;;;;;;16.13;5.00;;;25.30;99.90;;;;;;5020167;28;20755;-72
2022/05/17 09:04:24;;;;;;;7.90;4.57;;;25.50;99.90;;;;;;5042516;28;20732;-72
2022/05/17 09:07:26;;;;;;;7.55;4.20;;;25.50;99.90;;;;;;5044674;28;20909;-72
2022/05/17 09:09:57;;;;;;;11.75;4.25;;;25.60;99.90;;;;;;5052545;28;20190;-71
2022/05/17 09:13:17;;;;;;;6.25;4.38;;;25.70;99.90;;;;;;5084903;28;20213;-71
2022/05/17 09:15:44;;;;;;;10.52;4.15;;;25.80;99.90;;;;;;5027560;28;20560;-72
2022/05/17 09:18:17;;;;;;;9.18;4.07;;;25.90;99.90;;;;;;5058102;28;20190;-72
2022/05/17 09:20:44;;;;;;;11.30;4.25;;;25.90;99.90;;;;;;5044158;28;20207;-71
2022/05/17 09:23:12;;;;;;;7.18;3.75;;;26.00;99.90;;;;;;5067143;28;20216;-71
2022/05/17 09:26:01;;;;;;;8.23;4.35;;;26.00;99.90;;;;;;5068389;28;20310;-71
2022/05/17 09:28:43;;;;;;;11.32;4.00;;;26.00;99.90;;;;;;5048233;28;20187;-72
2022/05/17 09:31:35;;;;;;;12.70;3.65;;;26.10;99.90;;;;;;5044847;28;20203;-72
2022/05/17 09:34:10;;;;;;;7.47;3.65;;;26.20;99.90;;;;;;5048119;28;20183;-72
2022/05/17 09:36:53;;;;;;;10.77;4.07;;;26.20;99.90;;;;;;5067213;28;20842;-72
2022/05/17 09:39:30;;;;;;;8.82;3.90;;;26.30;99.90;;;;;;5069581;28;20178;-72
2022/05/17 09:42:03;;;;;;;6.40;3.88;;;26.30;99.90;;;;;;5062824;28;20639;-72
2022/05/17 09:44:33;;;;;;;8.10;4.20;;;26.30;99.90;;;;;;5068559;28;20696;-72
2022/05/17 09:47:24;;;;;;;10.18;4.07;;;26.30;99.90;;;;;;5068400;28;20207;-71
2022/05/17 09:52:38;;;;;;;10.32;3.75;;;26.60;99.90;;;;;;5046377;28;20207;-71
2022/05/17 09:55:22;;;;;;;9.27;4.15;;;26.70;99.90;;;;;;5049683;28;20186;-72
2022/05/17 09:58:03;;;;;;;9.15;4.05;;;26.70;99.90;;;;;;5069252;28;20190;-72
2022/05/17 10:00:46;;;;;;;10.55;4.25;;;26.70;99.90;;;;;;5062205;28;20179;-72
2022/05/17 10:03:15;;;;;;;11.73;3.80;;;26.80;99.90;;;;;;5040745;28;20187;-72
2022/05/17 10:06:00;;;;;;;8.30;3.85;;;26.70;99.90;;;;;;5055514;28;20223;-72
2022/05/17 10:09:11;;;;;;;8.70;3.92;;;26.80;99.90;;;;;;5065599;28;20198;-72
2022/05/17 10:12:20;;;;;;;11.48;4.13;;;26.90;99.90;;;;;;5052880;28;20607;-72
2022/05/17 10:14:55;;;;;;;9.52;4.38;;;26.90;99.90;;;;;;5051492;28;20229;-72
2022/05/17 10:17:52;;;;;;;6.32;3.85;;;26.90;99.90;;;;;;5054072;28;20215;-72
2022/05/17 10:20:40;;;;;;;7.88;3.97;;;26.90;99.90;;;;;;5053010;28;20206;-72
2022/05/17 10:23:35;;;;;;;9.60;4.75;;;26.90;99.90;;;;;;5062142;28;20217;-72
2022/05/17 10:26:13;;;;;;;9.25;3.90;;;26.80;99.90;;;;;;5061923;28;20203;-72
2022/05/17 10:28:52;;;;;;;11.80;4.38;;;27.00;99.90;;;;;;5051080;28;20178;-72
2022/05/17 10:31:46;;;;;;;9.57;3.42;;;27.00;99.90;;;;;;5055388;28;20679;-72
2022/05/17 10:34:46;;;;;;;8.93;3.83;;;26.90;99.90;;;;;;5065249;28;20206;-72
2022/05/17 10:37:41;;;;;;;12.20;4.18;;;27.00;99.90;;;;;;5073988;28;20191;-72
2022/05/17 10:40:15;;;;;;;14.30;4.32;;;26.80;99.90;;;;;;5064503;28;20702;-72
2022/05/17 10:42:43;;;;;;;7.15;4.05;;;26.80;99.90;;;;;;5065528;28;20212;-72
2022/05/17 10:45:35;;;;;;;10.10;4.10;;;26.70;99.90;;;;;;5056648;28;20527;-72
2022/05/17 10:48:35;;;;;;;10.38;4.20;;;26.70;99.90;;;;;;5054596;28;20228;-72
2022/05/17 10:51:30;;;;;;;11.90;4.35;;;26.70;99.90;;;;;;5032884;28;20724;-72
2022/05/17 10:54:29;;;;;;;13.25;4.10;;;26.70;99.90;;;;;;5054000;28;20654;-72
2022/05/17 10:57:34;;;;;;;8.82;4.22;;;26.60;99.90;;;;;;5020532;28;20187;-72
2022/05/17 11:00:18;;;;;;;10.73;4.10;;;26.50;99.90;;;;;;5036858;28;20199;-72
2022/05/17 11:02:56;;;;;;;10.15;4.13;;;26.40;99.90;;;;;;5046792;28;20201;-72
2022/05/17 11:06:11;;;;;;;10.57;4.53;;;26.30;99.90;;;;;;5054067;28;20631;-72
2022/05/17 11:09:08;;;;;;;16.13;4.75;;;26.30;99.90;;;;;;5029268;28;20314;-72
2022/05/17 11:12:00;;;;;;;16.33;4.30;;;26.20;99.90;;;;;;5055976;28;20187;-72
2022/05/17 11:14:38;;;;;;;14.00;4.20;;;26.20;99.90;;;;;;5061707;28;20198;-72
2022/05/17 11:17:24;;;;;;;9.73;4.72;;;26.10;99.90;;;;;;5051992;28;20183;-72
2022/05/17 11:19:56;;;;;;;7.60;4.20;;;26.00;99.90;;;;;;5052394;28;20718;-72
2022/05/17 11:23:25;;;;;;;8.98;4.50;;;26.00;99.90;;;;;;5056176;28;20198;-72
2022/05/17 11:26:42;;;;;;;9.90;4.63;;;25.90;99.90;;;;;;5055024;28;20214;-73
2022/05/17 11:29:42;;;;;;;9.52;4.57;;;25.90;99.90;;;;;;5062963;28;20277;-72
2022/05/17 11:32:34;;;;;;;14.00;4.20;;;25.80;99.90;;;;;;5049838;28;20218;-72
2022/05/17 11:35:23;;;;;;;9.95;4.63;;;25.70;99.90;;;;;;5033944;28;20198;-72
2022/05/17 11:37:54;;;;;;;9.65;4.38;;;25.70;99.90;;;;;;5065394;28;20214;-72
2022/05/17 11:40:52;;;;;;;8.57;4.18;;;25.60;99.90;;;;;;5060737;28;20194;-72
2022/05/17 11:43:41;;;;;;;8.57;4.60;;;25.60;99.90;;;;;;5058092;28;20194;-72
2022/05/17 11:46:28;;;;;;;9.02;4.85;;;25.40;99.90;;;;;;5065266;28;20206;-72
2022/05/17 11:49:13;;;;;;;10.57;4.70;;;25.40;99.90;;;;;;5045161;28;20278;-72
2022/05/17 11:51:59;;;;;;;10.85;4.43;;;25.50;99.90;;;;;;5034822;28;20193;-72
2022/05/17 11:54:44;;;;;;;11.13;4.60;;;25.50;99.90;;;;;;5078645;28;20183;-72
2022/05/17 11:57:30;;;;;;;10.43;4.55;;;25.60;99.90;;;;;;5030925;28;20272;-72
2022/05/17 12:00:04;;;;;;;8.00;4.53;;;25.50;99.90;;;;;;5067524;28;20199;-72
2022/05/17 12:02:51;;;;;;;10.77;4.32;;;25.60;99.90;;;;;;5061401;28;20193;-72
2022/05/17 12:05:43;;;;;;;8.32;4.13;;;25.90;99.90;;;;;;5022445;28;20183;-72
2022/05/17 12:08:35;;;;;;;8.82;4.38;;;25.80;99.90;;;;;;5027724;28;20255;-72
2022/05/17 12:11:10;;;;;;;7.97;4.32;;;25.90;99.90;;;;;;5059183;28;20195;-71
2022/05/17 12:14:24;;;;;;;7.75;4.13;;;26.00;99.90;;;;;;5045828;28;20248;-72
2022/05/17 12:16:59;;;;;;;7.03;3.75;;;26.00;99.90;;;;;;5049520;28;20191;-72
2022/05/17 12:19:45;;;;;;;8.15;3.97;;;26.00;99.90;;;;;;5047777;28;20194;-72
2022/05/17 12:22:46;;;;;;;9.48;4.30;;;26.00;99.90;;;;;;5074389;28;20752;-72
2022/05/17 12:25:40;;;;;;;9.40;4.25;;;26.00;99.90;;;;;;5065254;28;20247;-72
2022/05/17 12:28:52;;;;;;;6.72;3.38;;;25.90;99.90;;;;;;5041666;28;22022;-71
2022/05/17 12:31:27;;;;;;;8.57;4.18;;;25.80;99.90;;;;;;5026092;28;20210;-72
2022/05/17 12:33:56;;;;;;;7.28;3.97;;;25.70;99.90;;;;;;5064261;28;20185;-72
2022/05/17 12:36:35;;;;;;;6.47;4.05;;;26.00;99.90;;;;;;5041557;28;20524;-72
2022/05/17 12:45:03;;;;;;;6.50;4.15;;;26.10;99.90;;;;;;5063080;28;20197;-72
2022/05/17 12:47:41;;;;;;;6.75;3.72;;;26.10;99.90;;;;;;5066362;28;20230;-71
2022/05/17 12:50:18;;;;;;;8.40;3.67;;;26.00;99.90;;;;;;5062387;28;20183;-71
2022/05/17 12:52:52;;;;;;;6.63;3.60;;;26.00;99.90;;;;;;5069318;28;20230;-72
2022/05/17 12:55:32;;;;;;;6.00;3.35;;;26.00;99.90;;;;;;5059275;28;20187;-72
2022/05/17 12:58:14;;;;;;;5.45;3.60;;;26.00;99.90;;;;;;5040960;28;20190;-71
2022/05/17 13:00:42;;;;;;;5.97;3.30;;;26.10;99.90;;;;;;5057953;28;20273;-72
2022/05/17 13:03:20;;;;;;;4.40;3.53;;;26.10;99.90;;;;;;5051288;28;20183;-72
2022/05/17 13:05:51;;;;;;;10.68;4.13;;;26.20;99.90;;;;;;5061871;28;20242;-72
2022/05/17 13:08:41;;;;;;;6.32;3.63;;;26.20;99.90;;;;;;5033175;28;20188;-72
2022/05/17 13:11:25;;;;;;;5.97;3.42;;;26.00;99.90;;;;;;5053433;28;20180;-72
2022/05/17 13:14:06;;;;;;;5.53;3.50;;;25.80;99.90;;;;;;5056586;28;20191;-72
2022/05/17 13:16:40;;;;;;;4.82;3.30;;;25.90;99.90;;;;;;5058885;28;20199;-72
2022/05/17 13:19:14;;;;;;;6.15;3.80;;;25.80;99.90;;;;;;5029109;28;20348;-72
2022/05/17 13:21:48;;;;;;;6.70;3.92;;;25.90;99.90;;;;;;5061744;28;20202;-72
2022/05/17 13:24:39;;;;;;;11.85;4.10;;;25.70;99.90;;;;;;5044302;28;20206;-72
2022/05/17 13:27:27;;;;;;;5.65;3.70;;;25.80;99.90;;;;;;5050836;28;20214;-72
2022/05/17 13:30:37;;;;;;;7.78;4.05;;;25.80;99.90;;;;;;5053726;28;20222;-72
2022/05/17 13:33:25;;;;;;;7.80;4.00;;;25.60;99.90;;;;;;5060218;28;20202;-72
2022/05/17 13:36:12;;;;;;;7.03;4.13;;;25.50;99.90;;;;;;5031577;28;20195;-72
2022/05/17 13:38:49;;;;;;;7.45;4.40;;;25.60;99.90;;;;;;5053210;28;20319;-72
2022/05/17 13:41:40;;;;;;;7.88;3.80;;;25.50;99.90;;;;;;5059726;28;20232;-72
2022/05/17 13:44:09;;;;;;;6.57;4.05;;;25.50;99.90;;;;;;5060830;28;20552;-72